Shinpuku Maru — JL6543 — position and weather

sailwx.info

Track history (hours):
 
Tides and Currents Weather Stations Pressure Air Temp Water Temp Dewpoint Dewpoint Depression Visibility Wind Speed Wind Dir Waves Ship Positions

Shinpuku Maru

Last reported at 2017-Sep-12 09:50 UTC. Time now 2017-Sep-24 19:26 UTC.
Position N 34°59' E 139°26'.
Warning: this ship's position is 12 days out of date.

Length 79 m; draft 5.3 m.

Type: Cargo ship. MMSI: 431500572.

Date/timePositionNaut miles runAvg speedWind from/ knotsBaromVisibWave heightAir tempDewpointWater temp
2017-Sep-12 09:50N 34°59' E 139°26'3 8.4
2017-Sep-12 09:26N 35°01' E 139°30'4 8.8
2017-Sep-12 09:00N 35°03' E 139°34'5 9.6
2017-Sep-12 08:31N 35°05' E 139°39'510.3
2017-Sep-12 08:01N 35°09' E 139°44'5 9.5
2017-Sep-12 07:31N 35°13' E 139°46'5 9.4
2017-Sep-12 07:01N 35°18' E 139°44'510.3
2017-Sep-12 06:31N 35°22' E 139°42'5 9.9
2017-Sep-12 06:00N 35°27' E 139°41'2 3.5
2017-Sep-12 05:31N 35°29' E 139°40'0 0.0
2017-Sep-12 04:58N 35°29' E 139°40'0 0.0
2017-Sep-12 04:28N 35°29' E 139°40'0 0.0
2017-Sep-12 03:58N 35°29' E 139°40'0 0.0
2017-Sep-12 03:28N 35°29' E 139°40'0 0.0
2017-Sep-12 03:01N 35°29' E 139°40'0 0.0
2017-Sep-12 02:28N 35°29' E 139°40'0 0.0
2017-Sep-12 01:58N 35°29' E 139°40'0 0.0
2017-Sep-12 01:28N 35°29' E 139°40'0 0.0
2017-Sep-12 01:01N 35°29' E 139°40'0 0.0
2017-Sep-12 00:28N 35°29' E 139°40'0 0.0
2017-Sep-11 23:58N 35°29' E 139°40'0 0.0
2017-Sep-11 23:28N 35°29' E 139°40'0 0.4
2017-Sep-11 23:00N 35°28' E 139°40'4 7.2
2017-Sep-11 22:30N 35°26' E 139°43'3 6.5
2017-Sep-11 22:00N 35°23' E 139°44'0 0.1
2017-Sep-11 21:30N 35°23' E 139°44'0 0.1
2017-Sep-11 21:00N 35°23' E 139°44'0 0.1
2017-Sep-11 20:30N 35°23' E 139°44'0 0.1
2017-Sep-11 20:00N 35°23' E 139°44'0 0.0
2017-Sep-11 19:31N 35°23' E 139°44'0 0.0
2017-Sep-11 19:00N 35°23' E 139°44'0 0.0
2017-Sep-11 18:12N 35°23' E 139°44'1 3.1
2017-Sep-11 18:00N 35°22' E 139°44'510.9
2017-Sep-11 17:30N 35°17' E 139°46'612.2
2017-Sep-11 17:00N 35°11' E 139°47'612.8
2017-Sep-11 16:30N 35°05' E 139°44'612.3
2017-Sep-11 16:00N 35°01' E 139°39'  
Track history (hours):
 
Tides and Currents Weather Stations Pressure Air Temp Water Temp Dewpoint Dewpoint Depression Visibility Wind Speed Wind Dir Waves Ship Positions

Shinpuku Maru

Last reported at 2017-Sep-12 09:50 UTC. Time now 2017-Sep-24 19:26 UTC.
Position N 34°59' E 139°26'.
Warning: this ship's position is 12 days out of date.

Length 79 m; draft 5.3 m.

Type: Cargo ship. MMSI: 431500572.

Date/timePositionNaut miles runAvg speedWind from/ knotsBaromVisibWave heightAir tempDewpointWater temp
2017-Sep-12 09:50N 34°59' E 139°26'3 8.4
2017-Sep-12 09:26N 35°01' E 139°30'4 8.8
2017-Sep-12 09:00N 35°03' E 139°34'5 9.6
2017-Sep-12 08:31N 35°05' E 139°39'510.3
2017-Sep-12 08:01N 35°09' E 139°44'5 9.5
2017-Sep-12 07:31N 35°13' E 139°46'5 9.4
2017-Sep-12 07:01N 35°18' E 139°44'510.3
2017-Sep-12 06:31N 35°22' E 139°42'5 9.9
2017-Sep-12 06:00N 35°27' E 139°41'2 3.5
2017-Sep-12 05:31N 35°29' E 139°40'0 0.0
2017-Sep-12 04:58N 35°29' E 139°40'0 0.0
2017-Sep-12 04:28N 35°29' E 139°40'0 0.0
2017-Sep-12 03:58N 35°29' E 139°40'0 0.0
2017-Sep-12 03:28N 35°29' E 139°40'0 0.0
2017-Sep-12 03:01N 35°29' E 139°40'0 0.0
2017-Sep-12 02:28N 35°29' E 139°40'0 0.0
2017-Sep-12 01:58N 35°29' E 139°40'0 0.0
2017-Sep-12 01:28N 35°29' E 139°40'0 0.0
2017-Sep-12 01:01N 35°29' E 139°40'0 0.0
2017-Sep-12 00:28N 35°29' E 139°40'0 0.0
2017-Sep-11 23:58N 35°29' E 139°40'0 0.0
2017-Sep-11 23:28N 35°29' E 139°40'0 0.4
2017-Sep-11 23:00N 35°28' E 139°40'4 7.2
2017-Sep-11 22:30N 35°26' E 139°43'3 6.5
2017-Sep-11 22:00N 35°23' E 139°44'0 0.1
2017-Sep-11 21:30N 35°23' E 139°44'0 0.1
2017-Sep-11 21:00N 35°23' E 139°44'0 0.1
2017-Sep-11 20:30N 35°23' E 139°44'0 0.1
2017-Sep-11 20:00N 35°23' E 139°44'0 0.0
2017-Sep-11 19:31N 35°23' E 139°44'0 0.0
2017-Sep-11 19:00N 35°23' E 139°44'0 0.0
2017-Sep-11 18:12N 35°23' E 139°44'1 3.1
2017-Sep-11 18:00N 35°22' E 139°44'510.9
2017-Sep-11 17:30N 35°17' E 139°46'612.2
2017-Sep-11 17:00N 35°11' E 139°47'612.8
2017-Sep-11 16:30N 35°05' E 139°44'612.3
2017-Sep-11 16:00N 35°01' E 139°39'  

Dump ship's entire track history